Station Historical Data
Daily Summary for March 8, 2017 Units:  Both    English   Metric
« Previous Day
Next Day »
Daily Weekly Monthly Yearly Custom
  High: Low: Average:
Temperature: 49.3 °F /  9.6 °C 36.8 °F /  2.7 °C 43.1 °F /  6.2 °C
Dew Point: 34.4 °F /  1.3 °C 22.9 °F /  -5.1 °C 28.4 °F /  -2 °C
Humidity: 83% 37% 57%
Wind Speed: 31.0mph /  49.9km/h - 10mph /  16.1km/h
Wind Gust: 54.0mph /  86.9km/h - -
Wind- - WSW
Pressure: 29.94 in /  1013.8 hPa 29.74 in /  1007 hPa -
Precipitation: 0.00 in /  0 mm    
Historical Graphs
 
 
Tabular Data for March 8, 2017
Time Temperature Dew Point Pressure Wind Wind Speed Wind Gust Humidity Rainfall Rate (Hourly)
00:04 42.8 °F /  6 °C 34.4 °F /  1.3 °C 29.91in /  1012.8hPa SW 6.0mph /  9.7km/h 12.0mph /  19.3km/h 72% 0.00in /  0mm
00:09 42.9 °F /  6.1 °C 34.1 °F /  1.2 °C 29.91in /  1012.8hPa SW 5.0mph /  8km/h 12.0mph /  19.3km/h 71% 0.00in /  0mm
00:14 43.3 °F /  6.3 °C 34.2 °F /  1.2 °C 29.92in /  1013.1hPa WSW 6.0mph /  9.7km/h 17.0mph /  27.4km/h 70% 0.00in /  0mm
00:19 44.1 °F /  6.7 °C 31.5 °F /  -0.3 °C 29.92in /  1013.1hPa WNW 7.0mph /  11.3km/h 20.0mph /  32.2km/h 61% 0.00in /  0mm
00:24 44.6 °F /  7 °C 32.0 °F /  0 °C 29.92in /  1013.1hPa SW 6.0mph /  9.7km/h 10.0mph /  16.1km/h 61% 0.00in /  0mm
00:29 44.5 °F /  6.9 °C 32.3 °F /  0.2 °C 29.93in /  1013.4hPa WSW 9.0mph /  14.5km/h 15.0mph /  24.1km/h 62% 0.00in /  0mm
00:34 44.5 °F /  6.9 °C 31.9 °F /  -0.1 °C 29.94in /  1013.8hPa SSW 7.0mph /  11.3km/h 16.0mph /  25.7km/h 61% 0.00in /  0mm
00:39 44.5 °F /  6.9 °C 31.9 °F /  -0.1 °C 29.93in /  1013.4hPa WSW 8.0mph /  12.9km/h 16.0mph /  25.7km/h 61% 0.00in /  0mm
00:44 44.3 °F /  6.8 °C 31.7 °F /  -0.2 °C 29.91in /  1012.8hPa WSW 6.0mph /  9.7km/h 13.0mph /  20.9km/h 61% 0.00in /  0mm
00:49 44.2 °F /  6.8 °C 31.6 °F /  -0.2 °C 29.90in /  1012.4hPa West 5.0mph /  8km/h 9.0mph /  14.5km/h 61% 0.00in /  0mm
00:54 44.0 °F /  6.7 °C 31.4 °F /  -0.3 °C 29.92in /  1013.1hPa WSW 3.0mph /  4.8km/h 6.0mph /  9.7km/h 61% 0.00in /  0mm
00:59 44.1 °F /  6.7 °C 31.1 °F /  -0.5 °C 29.92in /  1013.1hPa West 2.0mph /  3.2km/h 8.0mph /  12.9km/h 60% 0.00in /  0mm
01:04 44.2 °F /  6.8 °C 30.8 °F /  -0.7 °C 29.93in /  1013.4hPa WSW 3.0mph /  4.8km/h 8.0mph /  12.9km/h 59% 0.00in /  0mm
01:09 44.1 °F /  6.7 °C 31.1 °F /  -0.5 °C 29.93in /  1013.4hPa WSW 2.0mph /  3.2km/h 6.0mph /  9.7km/h 60% 0.00in /  0mm
01:14 43.8 °F /  6.6 °C 30.8 °F /  -0.7 °C 29.94in /  1013.8hPa SW 3.0mph /  4.8km/h 6.0mph /  9.7km/h 60% 0.00in /  0mm
01:19 43.6 °F /  6.4 °C 31.8 °F /  -0.1 °C 29.94in /  1013.8hPa SW 2.0mph /  3.2km/h 6.0mph /  9.7km/h 63% 0.00in /  0mm
01:24 43.3 °F /  6.3 °C 31.5 °F /  -0.3 °C 29.93in /  1013.4hPa SW 2.0mph /  3.2km/h 4.0mph /  6.4km/h 63% 0.00in /  0mm
01:29 43.2 °F /  6.2 °C 31.4 °F /  -0.3 °C 29.92in /  1013.1hPa SSW 2.0mph /  3.2km/h 5.0mph /  8km/h 63% 0.00in /  0mm
01:34 43.0 °F /  6.1 °C 31.6 °F /  -0.2 °C 29.91in /  1012.8hPa SSW 2.0mph /  3.2km/h 5.0mph /  8km/h 64% 0.00in /  0mm
01:39 42.8 °F /  6 °C 31.8 °F /  -0.1 °C 29.91in /  1012.8hPa SSW 1.0mph /  1.6km/h 5.0mph /  8km/h 65% 0.00in /  0mm
01:44 42.4 °F /  5.8 °C 32.2 °F /  0.1 °C 29.91in /  1012.8hPa Calm   1.0mph /  1.6km/h 67% 0.00in /  0mm
01:49 42.3 °F /  5.7 °C 32.5 °F /  0.3 °C 29.91in /  1012.8hPa Calm   1.0mph /  1.6km/h 68% 0.00in /  0mm
01:54 42.4 °F /  5.8 °C 31.8 °F /  -0.1 °C 29.90in /  1012.4hPa Calm     66% 0.00in /  0mm
01:59 42.2 °F /  5.7 °C 32.0 °F /  0 °C 29.91in /  1012.8hPa WSW 2.0mph /  3.2km/h 3.0mph /  4.8km/h 67% 0.00in /  0mm
02:04 42.1 °F /  5.6 °C 31.9 °F /  -0.1 °C 29.90in /  1012.4hPa West 1.0mph /  1.6km/h 4.0mph /  6.4km/h 67% 0.00in /  0mm
02:09 42.0 °F /  5.6 °C 31.8 °F /  -0.1 °C 29.91in /  1012.8hPa WSW 2.0mph /  3.2km/h 4.0mph /  6.4km/h 67% 0.00in /  0mm
02:14 42.1 °F /  5.6 °C 31.9 °F /  -0.1 °C 29.91in /  1012.8hPa WSW 5.0mph /  8km/h 7.0mph /  11.3km/h 67% 0.00in /  0mm
02:19 42.2 °F /  5.7 °C 32.0 °F /  0 °C 29.91in /  1012.8hPa SW 1.0mph /  1.6km/h 7.0mph /  11.3km/h 67% 0.00in /  0mm
02:24 42.2 °F /  5.7 °C 32.0 °F /  0 °C 29.92in /  1013.1hPa SW 4.0mph /  6.4km/h 10.0mph /  16.1km/h 67% 0.00in /  0mm
02:29 42.0 °F /  5.6 °C 32.6 °F /  0.3 °C 29.93in /  1013.4hPa SW 5.0mph /  8km/h 10.0mph /  16.1km/h 69% 0.00in /  0mm
02:34 41.5 °F /  5.3 °C 32.8 °F /  0.4 °C 29.92in /  1013.1hPa SW 5.0mph /  8km/h 10.0mph /  16.1km/h 71% 0.00in /  0mm
02:39 41.2 °F /  5.1 °C 32.9 °F /  0.5 °C 29.93in /  1013.4hPa SW 5.0mph /  8km/h 11.0mph /  17.7km/h 72% 0.00in /  0mm
02:44 40.9 °F /  4.9 °C 32.9 °F /  0.5 °C 29.94in /  1013.8hPa SW 6.0mph /  9.7km/h 13.0mph /  20.9km/h 73% 0.00in /  0mm
02:49 40.6 °F /  4.8 °C 33.3 °F /  0.7 °C 29.94in /  1013.8hPa WSW 6.0mph /  9.7km/h 13.0mph /  20.9km/h 75% 0.00in /  0mm
02:54 40.3 °F /  4.6 °C 33.3 °F /  0.7 °C 29.94in /  1013.8hPa South 5.0mph /  8km/h 13.0mph /  20.9km/h 76% 0.00in /  0mm
02:59 39.9 °F /  4.4 °C 33.3 °F /  0.7 °C 29.93in /  1013.4hPa SW 5.0mph /  8km/h 11.0mph /  17.7km/h 77% 0.00in /  0mm
03:04 39.5 °F /  4.2 °C 33.2 °F /  0.7 °C 29.92in /  1013.1hPa SW 7.0mph /  11.3km/h 12.0mph /  19.3km/h 78% 0.00in /  0mm
03:09 39.0 °F /  3.9 °C 33.0 °F /  0.6 °C 29.93in /  1013.4hPa WSW 9.0mph /  14.5km/h 13.0mph /  20.9km/h 79% 0.00in /  0mm
03:14 38.6 °F /  3.7 °C 32.6 °F /  0.3 °C 29.94in /  1013.8hPa SSW 7.0mph /  11.3km/h 15.0mph /  24.1km/h 79% 0.00in /  0mm
03:19 38.3 °F /  3.5 °C 32.7 °F /  0.4 °C 29.94in /  1013.8hPa SW 8.0mph /  12.9km/h 11.0mph /  17.7km/h 80% 0.00in /  0mm
03:24 38.1 °F /  3.4 °C 32.5 °F /  0.3 °C 29.94in /  1013.8hPa SW 5.0mph /  8km/h 11.0mph /  17.7km/h 80% 0.00in /  0mm
03:29 37.8 °F /  3.2 °C 32.5 °F /  0.3 °C 29.94in /  1013.8hPa SW 5.0mph /  8km/h 11.0mph /  17.7km/h 81% 0.00in /  0mm
03:34 37.5 °F /  3.1 °C 32.5 °F /  0.3 °C 29.94in /  1013.8hPa SW 5.0mph /  8km/h 10.0mph /  16.1km/h 82% 0.00in /  0mm
03:39 37.3 °F /  2.9 °C 32.3 °F /  0.2 °C 29.94in /  1013.8hPa SW 5.0mph /  8km/h 10.0mph /  16.1km/h 82% 0.00in /  0mm
03:44 37.1 °F /  2.8 °C 32.4 °F /  0.2 °C 29.93in /  1013.4hPa SW 5.0mph /  8km/h 10.0mph /  16.1km/h 83% 0.00in /  0mm
03:49 37.0 °F /  2.8 °C 32.3 °F /  0.2 °C 29.94in /  1013.8hPa SW 5.0mph /  8km/h 10.0mph /  16.1km/h 83% 0.00in /  0mm
03:54 36.9 °F /  2.7 °C 32.2 °F /  0.1 °C 29.94in /  1013.8hPa SW 5.0mph /  8km/h 9.0mph /  14.5km/h 83% 0.00in /  0mm
03:59 36.9 °F /  2.7 °C 31.9 °F /  -0.1 °C 29.93in /  1013.4hPa SW 4.0mph /  6.4km/h 9.0mph /  14.5km/h 82% 0.00in /  0mm
04:04 37.0 °F /  2.8 °C 32.0 °F /  0 °C 29.94in /  1013.8hPa SW 4.0mph /  6.4km/h 8.0mph /  12.9km/h 82% 0.00in /  0mm
04:09 36.9 °F /  2.7 °C 31.6 °F /  -0.2 °C 29.94in /  1013.8hPa SW 3.0mph /  4.8km/h 7.0mph /  11.3km/h 81% 0.00in /  0mm
04:14 36.9 °F /  2.7 °C 31.6 °F /  -0.2 °C 29.94in /  1013.8hPa SW 3.0mph /  4.8km/h 8.0mph /  12.9km/h 81% 0.00in /  0mm
04:19 36.9 °F /  2.7 °C 31.6 °F /  -0.2 °C 29.94in /  1013.8hPa WSW 5.0mph /  8km/h 7.0mph /  11.3km/h 81% 0.00in /  0mm
04:24 36.9 °F /  2.7 °C 31.3 °F /  -0.4 °C 29.93in /  1013.4hPa WSW 3.0mph /  4.8km/h 8.0mph /  12.9km/h 80% 0.00in /  0mm
04:29 36.8 °F /  2.7 °C 31.2 °F /  -0.4 °C 29.93in /  1013.4hPa WSW 3.0mph /  4.8km/h 8.0mph /  12.9km/h 80% 0.00in /  0mm
04:34 36.9 °F /  2.7 °C 31.0 °F /  -0.6 °C 29.94in /  1013.8hPa SW 7.0mph /  11.3km/h 7.0mph /  11.3km/h 79% 0.00in /  0mm
04:39 37.1 °F /  2.8 °C 31.2 °F /  -0.4 °C 29.94in /  1013.8hPa SW 5.0mph /  8km/h 11.0mph /  17.7km/h 79% 0.00in /  0mm
04:44 37.2 °F /  2.9 °C 31.0 °F /  -0.6 °C 29.94in /  1013.8hPa SW 5.0mph /  8km/h 11.0mph /  17.7km/h 78% 0.00in /  0mm
04:49 37.3 °F /  2.9 °C 31.1 °F /  -0.5 °C 29.93in /  1013.4hPa SW 5.0mph /  8km/h 10.0mph /  16.1km/h 78% 0.00in /  0mm
04:54 37.5 °F /  3.1 °C 30.9 °F /  -0.6 °C 29.93in /  1013.4hPa SW 5.0mph /  8km/h 10.0mph /  16.1km/h 77% 0.00in /  0mm
04:59 37.7 °F /  3.2 °C 30.5 °F /  -0.8 °C 29.93in /  1013.4hPa SW 5.0mph /  8km/h 11.0mph /  17.7km/h 75% 0.00in /  0mm
05:04 38.1 °F /  3.4 °C 30.5 °F /  -0.8 °C 29.93in /  1013.4hPa SW 6.0mph /  9.7km/h 13.0mph /  20.9km/h 74% 0.00in /  0mm
05:09 38.3 °F /  3.5 °C 30.7 °F /  -0.7 °C 29.93in /  1013.4hPa WSW 11.0mph /  17.7km/h 15.0mph /  24.1km/h 74% 0.00in /  0mm
05:14 38.5 °F /  3.6 °C 30.3 °F /  -0.9 °C 29.93in /  1013.4hPa WSW 5.0mph /  8km/h 15.0mph /  24.1km/h 72% 0.00in /  0mm
05:19 38.7 °F /  3.7 °C 30.1 °F /  -1.1 °C 29.92in /  1013.1hPa SW 6.0mph /  9.7km/h 16.0mph /  25.7km/h 71% 0.00in /  0mm
05:24 38.9 °F /  3.8 °C 29.9 °F /  -1.2 °C 29.92in /  1013.1hPa South 6.0mph /  9.7km/h 13.0mph /  20.9km/h 70% 0.00in /  0mm
05:29 39.0 °F /  3.9 °C 30.0 °F /  -1.1 °C 29.92in /  1013.1hPa South 5.0mph /  8km/h 14.0mph /  22.5km/h 70% 0.00in /  0mm
05:34 39.0 °F /  3.9 °C 29.7 °F /  -1.3 °C 29.92in /  1013.1hPa SW 4.0mph /  6.4km/h 10.0mph /  16.1km/h 69% 0.00in /  0mm
05:39 39.0 °F /  3.9 °C 29.7 °F /  -1.3 °C 29.92in /  1013.1hPa SW 5.0mph /  8km/h 13.0mph /  20.9km/h 69% 0.00in /  0mm
05:44 39.2 °F /  4 °C 29.5 °F /  -1.4 °C 29.92in /  1013.1hPa SW 6.0mph /  9.7km/h 14.0mph /  22.5km/h 68% 0.00in /  0mm
05:49 39.2 °F /  4 °C 29.2 °F /  -1.6 °C 29.92in /  1013.1hPa SW 6.0mph /  9.7km/h 14.0mph /  22.5km/h 67% 0.00in /  0mm
05:54 39.2 °F /  4 °C 28.8 °F /  -1.8 °C 29.91in /  1012.8hPa SW 5.0mph /  8km/h 14.0mph /  22.5km/h 66% 0.00in /  0mm
05:59 39.3 °F /  4.1 °C 28.9 °F /  -1.7 °C 29.92in /  1013.1hPa SW 5.0mph /  8km/h 10.0mph /  16.1km/h 66% 0.00in /  0mm
06:04 39.3 °F /  4.1 °C 28.5 °F /  -1.9 °C 29.92in /  1013.1hPa SW 5.0mph /  8km/h 8.0mph /  12.9km/h 65% 0.00in /  0mm
06:09 39.2 °F /  4 °C 28.4 °F /  -2 °C 29.92in /  1013.1hPa SW 5.0mph /  8km/h 12.0mph /  19.3km/h 65% 0.00in /  0mm
06:14 39.3 °F /  4.1 °C 28.1 °F /  -2.2 °C 29.92in /  1013.1hPa South 5.0mph /  8km/h 8.0mph /  12.9km/h 64% 0.00in /  0mm
06:19 39.1 °F /  3.9 °C 27.9 °F /  -2.3 °C 29.92in /  1013.1hPa SW 3.0mph /  4.8km/h 9.0mph /  14.5km/h 64% 0.00in /  0mm
06:24 38.8 °F /  3.8 °C 27.7 °F /  -2.4 °C 29.91in /  1012.8hPa SSW 5.0mph /  8km/h 8.0mph /  12.9km/h 64% 0.00in /  0mm
06:29 38.6 °F /  3.7 °C 27.5 °F /  -2.5 °C 29.91in /  1012.8hPa SSW 2.0mph /  3.2km/h 8.0mph /  12.9km/h 64% 0.00in /  0mm
06:34 38.5 °F /  3.6 °C 27.4 °F /  -2.6 °C 29.91in /  1012.8hPa SSW 4.0mph /  6.4km/h 7.0mph /  11.3km/h 64% 0.00in /  0mm
06:39 38.6 °F /  3.7 °C 27.5 °F /  -2.5 °C 29.91in /  1012.8hPa SSW 4.0mph /  6.4km/h 8.0mph /  12.9km/h 64% 0.00in /  0mm
06:44 38.5 °F /  3.6 °C 27.4 °F /  -2.6 °C 29.91in /  1012.8hPa SSW 4.0mph /  6.4km/h 7.0mph /  11.3km/h 64% 0.00in /  0mm
06:49 38.0 °F /  3.3 °C 27.3 °F /  -2.6 °C 29.91in /  1012.8hPa SSW 4.0mph /  6.4km/h 7.0mph /  11.3km/h 65% 0.00in /  0mm
06:54 37.7 °F /  3.2 °C 27.4 °F /  -2.6 °C 29.91in /  1012.8hPa South 4.0mph /  6.4km/h 10.0mph /  16.1km/h 66% 0.00in /  0mm
06:59 37.7 °F /  3.2 °C 27.7 °F /  -2.4 °C 29.91in /  1012.8hPa SSW 4.0mph /  6.4km/h 10.0mph /  16.1km/h 67% 0.00in /  0mm
07:04 37.8 °F /  3.2 °C 27.8 °F /  -2.3 °C 29.91in /  1012.8hPa SSW 4.0mph /  6.4km/h 8.0mph /  12.9km/h 67% 0.00in /  0mm
07:09 38.3 °F /  3.5 °C 28.3 °F /  -2.1 °C 29.91in /  1012.8hPa SSW 4.0mph /  6.4km/h 8.0mph /  12.9km/h 67% 0.00in /  0mm
07:14 38.6 °F /  3.7 °C 28.6 °F /  -1.9 °C 29.91in /  1012.8hPa SSW 4.0mph /  6.4km/h 9.0mph /  14.5km/h 67% 0.00in /  0mm
07:19 38.9 °F /  3.8 °C 28.9 °F /  -1.7 °C 29.91in /  1012.8hPa SSW 4.0mph /  6.4km/h 9.0mph /  14.5km/h 67% 0.00in /  0mm
07:24 39.3 °F /  4.1 °C 28.9 °F /  -1.7 °C 29.90in /  1012.4hPa SSW 6.0mph /  9.7km/h 7.0mph /  11.3km/h 66% 0.00in /  0mm
07:29 39.7 °F /  4.3 °C 29.6 °F /  -1.3 °C 29.90in /  1012.4hPa SSW 8.0mph /  12.9km/h 8.0mph /  12.9km/h 67% 0.00in /  0mm
07:34 39.9 °F /  4.4 °C 29.8 °F /  -1.2 °C 29.90in /  1012.4hPa SSW 4.0mph /  6.4km/h 9.0mph /  14.5km/h 67% 0.00in /  0mm
07:39 40.0 °F /  4.4 °C 29.9 °F /  -1.2 °C 29.90in /  1012.4hPa South 4.0mph /  6.4km/h 9.0mph /  14.5km/h 67% 0.00in /  0mm
07:44 40.1 °F /  4.5 °C 29.6 °F /  -1.3 °C 29.90in /  1012.4hPa SSW 3.0mph /  4.8km/h 9.0mph /  14.5km/h 66% 0.00in /  0mm
07:49 40.2 °F /  4.6 °C 29.7 °F /  -1.3 °C 29.90in /  1012.4hPa SSW 4.0mph /  6.4km/h 8.0mph /  12.9km/h 66% 0.00in /  0mm
07:54 40.6 °F /  4.8 °C 30.1 °F /  -1.1 °C 29.89in /  1012.1hPa SSW 4.0mph /  6.4km/h 8.0mph /  12.9km/h 66% 0.00in /  0mm
07:59 41.2 °F /  5.1 °C 29.9 °F /  -1.2 °C 29.89in /  1012.1hPa SSW 4.0mph /  6.4km/h 8.0mph /  12.9km/h 64% 0.00in /  0mm
08:04 41.8 °F /  5.4 °C 30.1 °F /  -1.1 °C 29.89in /  1012.1hPa SSW 5.0mph /  8km/h 12.0mph /  19.3km/h 63% 0.00in /  0mm
08:09 42.2 °F /  5.7 °C 29.7 °F /  -1.3 °C 29.89in /  1012.1hPa SSW 6.0mph /  9.7km/h 16.0mph /  25.7km/h 61% 0.00in /  0mm
08:14 42.7 °F /  5.9 °C 30.2 °F /  -1 °C 29.89in /  1012.1hPa SSW 7.0mph /  11.3km/h 16.0mph /  25.7km/h 61% 0.00in /  0mm
08:19 43.5 °F /  6.4 °C 30.1 °F /  -1.1 °C 29.88in /  1011.7hPa SSW 7.0mph /  11.3km/h 15.0mph /  24.1km/h 59% 0.00in /  0mm
08:24 44.3 °F /  6.8 °C 30.4 °F /  -0.9 °C 29.88in /  1011.7hPa SSW 7.0mph /  11.3km/h 17.0mph /  27.4km/h 58% 0.00in /  0mm
08:29 44.1 °F /  6.7 °C 29.8 °F /  -1.2 °C 29.88in /  1011.7hPa SSW 8.0mph /  12.9km/h 19.0mph /  30.6km/h 57% 0.00in /  0mm
08:34 44.5 °F /  6.9 °C 30.6 °F /  -0.8 °C 29.88in /  1011.7hPa SW 8.0mph /  12.9km/h 15.0mph /  24.1km/h 58% 0.00in /  0mm
08:39 44.5 °F /  6.9 °C 30.2 °F /  -1 °C 29.88in /  1011.7hPa South 7.0mph /  11.3km/h 18.0mph /  29km/h 57% 0.00in /  0mm
08:44 44.6 °F /  7 °C 30.3 °F /  -0.9 °C 29.88in /  1011.7hPa WSW 13.0mph /  20.9km/h 20.0mph /  32.2km/h 57% 0.00in /  0mm
08:49 44.7 °F /  7.1 °C 30.0 °F /  -1.1 °C 29.88in /  1011.7hPa SW 15.0mph /  24.1km/h 23.0mph /  37km/h 56% 0.00in /  0mm
08:54 44.6 °F /  7 °C 29.4 °F /  -1.4 °C 29.88in /  1011.7hPa SW 11.0mph /  17.7km/h 23.0mph /  37km/h 55% 0.00in /  0mm
08:59 44.4 °F /  6.9 °C 29.2 °F /  -1.6 °C 29.88in /  1011.7hPa SW 11.0mph /  17.7km/h 23.0mph /  37km/h 55% 0.00in /  0mm
09:04 44.3 °F /  6.8 °C 29.6 °F /  -1.3 °C 29.88in /  1011.7hPa WSW 11.0mph /  17.7km/h 24.0mph /  38.6km/h 56% 0.00in /  0mm
09:09 44.2 °F /  6.8 °C 29.5 °F /  -1.4 °C 29.88in /  1011.7hPa SW 4.0mph /  6.4km/h 23.0mph /  37km/h 56% 0.00in /  0mm
09:14 43.9 °F /  6.6 °C 30.1 °F /  -1.1 °C 29.88in /  1011.7hPa WSW 11.0mph /  17.7km/h 28.0mph /  45.1km/h 58% 0.00in /  0mm
09:19 44.5 °F /  6.9 °C 30.6 °F /  -0.8 °C 29.88in /  1011.7hPa SSW 7.0mph /  11.3km/h 22.0mph /  35.4km/h 58% 0.00in /  0mm
09:24 44.8 °F /  7.1 °C 31.3 °F /  -0.4 °C 29.88in /  1011.7hPa SW 13.0mph /  20.9km/h 31.0mph /  49.9km/h 59% 0.00in /  0mm
09:29 44.2 °F /  6.8 °C 30.8 °F /  -0.7 °C 29.87in /  1011.4hPa WSW 13.0mph /  20.9km/h 31.0mph /  49.9km/h 59% 0.00in /  0mm
09:34 43.6 °F /  6.4 °C 30.6 °F /  -0.8 °C 29.87in /  1011.4hPa WSW 13.0mph /  20.9km/h 29.0mph /  46.7km/h 60% 0.00in /  0mm
09:39 43.4 °F /  6.3 °C 30.8 °F /  -0.7 °C 29.86in /  1011.1hPa SW 21.0mph /  33.8km/h 25.0mph /  40.2km/h 61% 0.00in /  0mm
09:44 44.1 °F /  6.7 °C 31.5 °F /  -0.3 °C 29.86in /  1011.1hPa SSW 17.0mph /  27.4km/h 24.0mph /  38.6km/h 61% 0.00in /  0mm
09:49 44.6 °F /  7 °C 31.6 °F /  -0.2 °C 29.86in /  1011.1hPa NW 18.0mph /  29km/h 24.0mph /  38.6km/h 60% 0.00in /  0mm
09:54 44.8 °F /  7.1 °C 31.8 °F /  -0.1 °C 29.85in /  1010.7hPa SW 13.0mph /  20.9km/h 24.0mph /  38.6km/h 60% 0.00in /  0mm
09:59 45.1 °F /  7.3 °C 32.0 °F /  0 °C 29.85in /  1010.7hPa SW 8.0mph /  12.9km/h 24.0mph /  38.6km/h 60% 0.00in /  0mm
10:04 44.9 °F /  7.2 °C 31.8 °F /  -0.1 °C 29.85in /  1010.7hPa West 25.0mph /  40.2km/h 27.0mph /  43.5km/h 60% 0.00in /  0mm
10:09 45.0 °F /  7.2 °C 31.9 °F /  -0.1 °C 29.85in /  1010.7hPa SW 19.0mph /  30.6km/h 25.0mph /  40.2km/h 60% 0.00in /  0mm
10:14 44.9 °F /  7.2 °C 32.3 °F /  0.2 °C 29.85in /  1010.7hPa SSW 12.0mph /  19.3km/h 22.0mph /  35.4km/h 61% 0.00in /  0mm
10:19 45.2 °F /  7.3 °C 32.5 °F /  0.3 °C 29.85in /  1010.7hPa SW 11.0mph /  17.7km/h 27.0mph /  43.5km/h 61% 0.00in /  0mm
10:24 45.6 °F /  7.6 °C 32.1 °F /  0.1 °C 29.85in /  1010.7hPa SW 12.0mph /  19.3km/h 27.0mph /  43.5km/h 59% 0.00in /  0mm
10:29 45.7 °F /  7.6 °C 31.3 °F /  -0.4 °C 29.84in /  1010.4hPa SW 13.0mph /  20.9km/h 27.0mph /  43.5km/h 57% 0.00in /  0mm
10:34 45.9 °F /  7.7 °C 31.1 °F /  -0.5 °C 29.84in /  1010.4hPa SW 15.0mph /  24.1km/h 27.0mph /  43.5km/h 56% 0.00in /  0mm
10:39 46.3 °F /  7.9 °C 31.0 °F /  -0.6 °C 29.84in /  1010.4hPa SW 15.0mph /  24.1km/h 30.0mph /  48.3km/h 55% 0.00in /  0mm
10:44 46.6 °F /  8.1 °C 30.4 °F /  -0.9 °C 29.84in /  1010.4hPa South 14.0mph /  22.5km/h 30.0mph /  48.3km/h 53% 0.00in /  0mm
10:49 47.2 °F /  8.4 °C 30.9 °F /  -0.6 °C 29.83in /  1010hPa SW 19.0mph /  30.6km/h 25.0mph /  40.2km/h 53% 0.00in /  0mm
10:54 47.2 °F /  8.4 °C 30.0 °F /  -1.1 °C 29.83in /  1010hPa SW 19.0mph /  30.6km/h 31.0mph /  49.9km/h 51% 0.00in /  0mm
10:59 47.3 °F /  8.5 °C 30.1 °F /  -1.1 °C 29.83in /  1010hPa SW 15.0mph /  24.1km/h 31.0mph /  49.9km/h 51% 0.00in /  0mm
11:04 47.8 °F /  8.8 °C 30.0 °F /  -1.1 °C 29.83in /  1010hPa SW 14.0mph /  22.5km/h 24.0mph /  38.6km/h 50% 0.00in /  0mm
11:09 47.6 °F /  8.7 °C 29.4 °F /  -1.4 °C 29.83in /  1010hPa SW 15.0mph /  24.1km/h 34.0mph /  54.7km/h 49% 0.00in /  0mm
11:14 48.0 °F /  8.9 °C 29.7 °F /  -1.3 °C 29.83in /  1010hPa SSW 11.0mph /  17.7km/h 28.0mph /  45.1km/h 49% 0.00in /  0mm
11:19 48.3 °F /  9.1 °C 29.5 °F /  -1.4 °C 29.82in /  1009.7hPa WSW 12.0mph /  19.3km/h 26.0mph /  41.8km/h 48% 0.00in /  0mm
11:24 48.5 °F /  9.2 °C 29.7 °F /  -1.3 °C 29.82in /  1009.7hPa WSW 9.0mph /  14.5km/h 26.0mph /  41.8km/h 48% 0.00in /  0mm
11:29 48.7 °F /  9.3 °C 27.7 °F /  -2.4 °C 29.82in /  1009.7hPa WNW 10.0mph /  16.1km/h 29.0mph /  46.7km/h 44% 0.00in /  0mm
11:34 48.5 °F /  9.2 °C 27.6 °F /  -2.4 °C 29.82in /  1009.7hPa SW 15.0mph /  24.1km/h 29.0mph /  46.7km/h 44% 0.00in /  0mm
11:39 48.7 °F /  9.3 °C 27.2 °F /  -2.7 °C 29.82in /  1009.7hPa SW 15.0mph /  24.1km/h 29.0mph /  46.7km/h 43% 0.00in /  0mm
11:44 48.8 °F /  9.3 °C 27.8 °F /  -2.3 °C 29.82in /  1009.7hPa SW 15.0mph /  24.1km/h 27.0mph /  43.5km/h 44% 0.00in /  0mm
11:49 49.1 °F /  9.5 °C 25.8 °F /  -3.4 °C 29.82in /  1009.7hPa SW 15.0mph /  24.1km/h 27.0mph /  43.5km/h 40% 0.00in /  0mm
11:54 49.1 °F /  9.5 °C 26.4 °F /  -3.1 °C 29.82in /  1009.7hPa SW 13.0mph /  20.9km/h 28.0mph /  45.1km/h 41% 0.00in /  0mm
11:59 48.9 °F /  9.4 °C 26.2 °F /  -3.2 °C 29.81in /  1009.4hPa SW 22.0mph /  35.4km/h 29.0mph /  46.7km/h 41% 0.00in /  0mm
12:04 49.0 °F /  9.4 °C 26.9 °F /  -2.8 °C 29.81in /  1009.4hPa SW 15.0mph /  24.1km/h 29.0mph /  46.7km/h 42% 0.00in /  0mm
12:09 49.3 °F /  9.6 °C 25.4 °F /  -3.7 °C 29.81in /  1009.4hPa SW 14.0mph /  22.5km/h 25.0mph /  40.2km/h 39% 0.00in /  0mm
12:14 49.1 °F /  9.5 °C 25.8 °F /  -3.4 °C 29.81in /  1009.4hPa SW 18.0mph /  29km/h 30.0mph /  48.3km/h 40% 0.00in /  0mm
12:19 48.6 °F /  9.2 °C 24.1 °F /  -4.4 °C 29.80in /  1009hPa SW 8.0mph /  12.9km/h 34.0mph /  54.7km/h 38% 0.00in /  0mm
12:24 48.6 °F /  9.2 °C 24.1 °F /  -4.4 °C 29.80in /  1009hPa SW 23.0mph /  37km/h 32.0mph /  51.5km/h 38% 0.00in /  0mm
12:29 48.8 °F /  9.3 °C 23.6 °F /  -4.7 °C 29.80in /  1009hPa SSE 15.0mph /  24.1km/h 37.0mph /  59.5km/h 37% 0.00in /  0mm
12:34 48.4 °F /  9.1 °C 23.9 °F /  -4.5 °C 29.80in /  1009hPa SW 18.0mph /  29km/h 37.0mph /  59.5km/h 38% 0.00in /  0mm
12:39 48.3 °F /  9.1 °C 23.8 °F /  -4.6 °C 29.80in /  1009hPa SW 19.0mph /  30.6km/h 35.0mph /  56.3km/h 38% 0.00in /  0mm
12:44 48.6 °F /  9.2 °C 24.7 °F /  -4.1 °C 29.79in /  1008.7hPa SW 17.0mph /  27.4km/h 30.0mph /  48.3km/h 39% 0.00in /  0mm
12:49 48.5 °F /  9.2 °C 25.2 °F /  -3.8 °C 29.79in /  1008.7hPa SW 16.0mph /  25.7km/h 29.0mph /  46.7km/h 40% 0.00in /  0mm
12:54 48.6 °F /  9.2 °C 25.3 °F /  -3.7 °C 29.79in /  1008.7hPa WSW 19.0mph /  30.6km/h 33.0mph /  53.1km/h 40% 0.00in /  0mm
12:59 48.6 °F /  9.2 °C 24.1 °F /  -4.4 °C 29.79in /  1008.7hPa WSW 19.0mph /  30.6km/h 30.0mph /  48.3km/h 38% 0.00in /  0mm
13:04 48.7 °F /  9.3 °C 24.8 °F /  -4 °C 29.79in /  1008.7hPa SW 11.0mph /  17.7km/h 27.0mph /  43.5km/h 39% 0.00in /  0mm
13:09 49.2 °F /  9.6 °C 25.3 °F /  -3.7 °C 29.79in /  1008.7hPa SW 15.0mph /  24.1km/h 27.0mph /  43.5km/h 39% 0.00in /  0mm
13:14 49.1 °F /  9.5 °C 24.6 °F /  -4.1 °C 29.78in /  1008.4hPa WSW 14.0mph /  22.5km/h 30.0mph /  48.3km/h 38% 0.00in /  0mm
13:19 49.2 °F /  9.6 °C 24.6 °F /  -4.1 °C 29.78in /  1008.4hPa WSW 15.0mph /  24.1km/h 30.0mph /  48.3km/h 38% 0.00in /  0mm
13:24 49.1 °F /  9.5 °C 24.6 °F /  -4.1 °C 29.78in /  1008.4hPa WSW 17.0mph /  27.4km/h 36.0mph /  57.9km/h 38% 0.00in /  0mm
13:29 49.2 °F /  9.6 °C 24.6 °F /  -4.1 °C 29.78in /  1008.4hPa WSW 18.0mph /  29km/h 39.0mph /  62.8km/h 38% 0.00in /  0mm
13:34 49.0 °F /  9.4 °C 25.1 °F /  -3.8 °C 29.77in /  1008hPa WSW 13.0mph /  20.9km/h 34.0mph /  54.7km/h 39% 0.00in /  0mm
13:39 49.0 °F /  9.4 °C 25.1 °F /  -3.8 °C 29.77in /  1008hPa WSW 22.0mph /  35.4km/h 34.0mph /  54.7km/h 39% 0.00in /  0mm
13:44 49.0 °F /  9.4 °C 25.1 °F /  -3.8 °C 29.78in /  1008.4hPa WSW 18.0mph /  29km/h 34.0mph /  54.7km/h 39% 0.00in /  0mm
13:49 48.9 °F /  9.4 °C 25.6 °F /  -3.6 °C 29.77in /  1008hPa WSW 18.0mph /  29km/h 30.0mph /  48.3km/h 40% 0.00in /  0mm
13:54 48.6 °F /  9.2 °C 24.7 °F /  -4.1 °C 29.77in /  1008hPa WSW 20.0mph /  32.2km/h 37.0mph /  59.5km/h 39% 0.00in /  0mm
13:59 48.5 °F /  9.2 °C 24.6 °F /  -4.1 °C 29.78in /  1008.4hPa WSW 22.0mph /  35.4km/h 39.0mph /  62.8km/h 39% 0.00in /  0mm
14:04 48.5 °F /  9.2 °C 24.6 °F /  -4.1 °C 29.77in /  1008hPa SW 31.0mph /  49.9km/h 37.0mph /  59.5km/h 39% 0.00in /  0mm
14:09 48.7 °F /  9.3 °C 26.0 °F /  -3.3 °C 29.76in /  1007.7hPa SW 21.0mph /  33.8km/h 37.0mph /  59.5km/h 41% 0.00in /  0mm
14:14 48.6 °F /  9.2 °C 25.9 °F /  -3.4 °C 29.77in /  1008hPa WSW 18.0mph /  29km/h 37.0mph /  59.5km/h 41% 0.00in /  0mm
14:19 48.5 °F /  9.2 °C 25.8 °F /  -3.4 °C 29.77in /  1008hPa WSW 20.0mph /  32.2km/h 54.0mph /  86.9km/h 41% 0.00in /  0mm
14:24 48.5 °F /  9.2 °C 25.8 °F /  -3.4 °C 29.76in /  1007.7hPa SW 19.0mph /  30.6km/h 36.0mph /  57.9km/h 41% 0.00in /  0mm
14:29 48.6 °F /  9.2 °C 25.9 °F /  -3.4 °C 29.76in /  1007.7hPa West 18.0mph /  29km/h 33.0mph /  53.1km/h 41% 0.00in /  0mm
14:34 48.3 °F /  9.1 °C 25.7 °F /  -3.5 °C 29.75in /  1007.3hPa SW 19.0mph /  30.6km/h 36.0mph /  57.9km/h 41% 0.00in /  0mm
14:39 48.3 °F /  9.1 °C 26.2 °F /  -3.2 °C 29.76in /  1007.7hPa WSW 31.0mph /  49.9km/h 44.0mph /  70.8km/h 42% 0.00in /  0mm
14:44 48.1 °F /  8.9 °C 26.1 °F /  -3.3 °C 29.76in /  1007.7hPa SW 19.0mph /  30.6km/h 40.0mph /  64.4km/h 42% 0.00in /  0mm
14:49 48.2 °F /  9 °C 26.2 °F /  -3.2 °C 29.76in /  1007.7hPa WSW 19.0mph /  30.6km/h 40.0mph /  64.4km/h 42% 0.00in /  0mm
14:54 48.3 °F /  9.1 °C 26.8 °F /  -2.9 °C 29.75in /  1007.3hPa WSW 18.0mph /  29km/h 32.0mph /  51.5km/h 43% 0.00in /  0mm
14:59 48.1 °F /  8.9 °C 26.6 °F /  -3 °C 29.75in /  1007.3hPa WSW 19.0mph /  30.6km/h 35.0mph /  56.3km/h 43% 0.00in /  0mm
15:04 48.1 °F /  8.9 °C 26.6 °F /  -3 °C 29.75in /  1007.3hPa WSW 20.0mph /  32.2km/h 35.0mph /  56.3km/h 43% 0.00in /  0mm
15:09 48.0 °F /  8.9 °C 26.5 °F /  -3.1 °C 29.75in /  1007.3hPa WSW 19.0mph /  30.6km/h 39.0mph /  62.8km/h 43% 0.00in /  0mm
15:14 47.9 °F /  8.8 °C 27.0 °F /  -2.8 °C 29.75in /  1007.3hPa WSW 15.0mph /  24.1km/h 34.0mph /  54.7km/h 44% 0.00in /  0mm
15:19 47.8 °F /  8.8 °C 26.4 °F /  -3.1 °C 29.75in /  1007.3hPa West 26.0mph /  41.8km/h 41.0mph /  66km/h 43% 0.00in /  0mm
15:24 47.8 °F /  8.8 °C 26.9 °F /  -2.8 °C 29.75in /  1007.3hPa SW 11.0mph /  17.7km/h 32.0mph /  51.5km/h 44% 0.00in /  0mm
15:29 48.0 °F /  8.9 °C 26.5 °F /  -3.1 °C 29.75in /  1007.3hPa WSW 14.0mph /  22.5km/h 34.0mph /  54.7km/h 43% 0.00in /  0mm
15:34 47.6 °F /  8.7 °C 26.7 °F /  -2.9 °C 29.74in /  1007hPa WSW 17.0mph /  27.4km/h 32.0mph /  51.5km/h 44% 0.00in /  0mm
15:39 47.8 °F /  8.8 °C 26.9 °F /  -2.8 °C 29.75in /  1007.3hPa WNW 15.0mph /  24.1km/h 35.0mph /  56.3km/h 44% 0.00in /  0mm
15:44 47.4 °F /  8.6 °C 27.1 °F /  -2.7 °C 29.75in /  1007.3hPa WNW 11.0mph /  17.7km/h 27.0mph /  43.5km/h 45% 0.00in /  0mm
15:49 47.1 °F /  8.4 °C 27.4 °F /  -2.6 °C 29.74in /  1007hPa SW 19.0mph /  30.6km/h 31.0mph /  49.9km/h 46% 0.00in /  0mm
15:54 47.3 °F /  8.5 °C 27.0 °F /  -2.8 °C 29.75in /  1007.3hPa West 18.0mph /  29km/h 33.0mph /  53.1km/h 45% 0.00in /  0mm
15:59 47.4 °F /  8.6 °C 27.1 °F /  -2.7 °C 29.75in /  1007.3hPa WSW 17.0mph /  27.4km/h 33.0mph /  53.1km/h 45% 0.00in /  0mm
16:04 46.9 °F /  8.3 °C 27.2 °F /  -2.7 °C 29.75in /  1007.3hPa WSW 15.0mph /  24.1km/h 33.0mph /  53.1km/h 46% 0.00in /  0mm
16:09 46.8 °F /  8.2 °C 27.1 °F /  -2.7 °C 29.75in /  1007.3hPa WSW 15.0mph /  24.1km/h 33.0mph /  53.1km/h 46% 0.00in /  0mm
16:14 47.3 °F /  8.5 °C 27.0 °F /  -2.8 °C 29.74in /  1007hPa WSW 16.0mph /  25.7km/h 35.0mph /  56.3km/h 45% 0.00in /  0mm
16:19 47.3 °F /  8.5 °C 26.5 °F /  -3.1 °C 29.75in /  1007.3hPa WSW 17.0mph /  27.4km/h 35.0mph /  56.3km/h 44% 0.00in /  0mm
16:24 47.0 °F /  8.3 °C 26.7 °F /  -2.9 °C 29.75in /  1007.3hPa WSW 10.0mph /  16.1km/h 34.0mph /  54.7km/h 45% 0.00in /  0mm
16:29 46.5 °F /  8.1 °C 26.8 °F /  -2.9 °C 29.75in /  1007.3hPa WSW 16.0mph /  25.7km/h 34.0mph /  54.7km/h 46% 0.00in /  0mm
16:34 46.9 °F /  8.3 °C 27.2 °F /  -2.7 °C 29.75in /  1007.3hPa WSW 15.0mph /  24.1km/h 34.0mph /  54.7km/h 46% 0.00in /  0mm
16:39 46.8 °F /  8.2 °C 27.1 °F /  -2.7 °C 29.74in /  1007hPa West 10.0mph /  16.1km/h 31.0mph /  49.9km/h 46% 0.00in /  0mm
16:44 46.6 °F /  8.1 °C 26.9 °F /  -2.8 °C 29.74in /  1007hPa West 12.0mph /  19.3km/h 34.0mph /  54.7km/h 46% 0.00in /  0mm
16:49 46.3 °F /  7.9 °C 27.2 °F /  -2.7 °C 29.75in /  1007.3hPa WSW 13.0mph /  20.9km/h 35.0mph /  56.3km/h 47% 0.00in /  0mm
16:54 46.4 °F /  8 °C 26.7 °F /  -2.9 °C 29.75in /  1007.3hPa WSW 24.0mph /  38.6km/h 29.0mph /  46.7km/h 46% 0.00in /  0mm
16:59 46.4 °F /  8 °C 26.7 °F /  -2.9 °C 29.75in /  1007.3hPa WSW 18.0mph /  29km/h 28.0mph /  45.1km/h 46% 0.00in /  0mm
17:04 46.3 °F /  7.9 °C 26.1 °F /  -3.3 °C 29.75in /  1007.3hPa WSW 16.0mph /  25.7km/h 34.0mph /  54.7km/h 45% 0.00in /  0mm
17:09 46.5 °F /  8.1 °C 25.2 °F /  -3.8 °C 29.75in /  1007.3hPa WSW 18.0mph /  29km/h 36.0mph /  57.9km/h 43% 0.00in /  0mm
17:14 46.5 °F /  8.1 °C 25.7 °F /  -3.5 °C 29.75in /  1007.3hPa WSW 18.0mph /  29km/h 36.0mph /  57.9km/h 44% 0.00in /  0mm
17:19 46.5 °F /  8.1 °C 25.2 °F /  -3.8 °C 29.75in /  1007.3hPa WSW 10.0mph /  16.1km/h 29.0mph /  46.7km/h 43% 0.00in /  0mm
17:24 46.5 °F /  8.1 °C 25.2 °F /  -3.8 °C 29.75in /  1007.3hPa WSW 19.0mph /  30.6km/h 35.0mph /  56.3km/h 43% 0.00in /  0mm
17:29 46.4 °F /  8 °C 25.6 °F /  -3.6 °C 29.75in /  1007.3hPa WSW 19.0mph /  30.6km/h 35.0mph /  56.3km/h 44% 0.00in /  0mm
17:34 46.1 °F /  7.8 °C 25.9 °F /  -3.4 °C 29.76in /  1007.7hPa WSW 18.0mph /  29km/h 35.0mph /  56.3km/h 45% 0.00in /  0mm
17:39 45.9 °F /  7.7 °C 25.7 °F /  -3.5 °C 29.76in /  1007.7hPa South 26.0mph /  41.8km/h 29.0mph /  46.7km/h 45% 0.00in /  0mm
17:44 45.6 °F /  7.6 °C 24.9 °F /  -3.9 °C 29.77in /  1008hPa WSW 20.0mph /  32.2km/h 31.0mph /  49.9km/h 44% 0.00in /  0mm
17:49 45.4 °F /  7.4 °C 25.3 °F /  -3.7 °C 29.76in /  1007.7hPa WSW 12.0mph /  19.3km/h 30.0mph /  48.3km/h 45% 0.00in /  0mm
17:54 44.9 °F /  7.2 °C 25.9 °F /  -3.4 °C 29.78in /  1008.4hPa West 19.0mph /  30.6km/h 29.0mph /  46.7km/h 47% 0.00in /  0mm
17:59 44.5 °F /  6.9 °C 26.0 °F /  -3.3 °C 29.78in /  1008.4hPa West 29.0mph /  46.7km/h 29.0mph /  46.7km/h 48% 0.00in /  0mm
18:04 44.0 °F /  6.7 °C 26.0 °F /  -3.3 °C 29.78in /  1008.4hPa West 8.0mph /  12.9km/h 22.0mph /  35.4km/h 49% 0.00in /  0mm
18:09 43.8 °F /  6.6 °C 25.9 °F /  -3.4 °C 29.79in /  1008.7hPa WSW 13.0mph /  20.9km/h 29.0mph /  46.7km/h 49% 0.00in /  0mm
18:14 43.8 °F /  6.6 °C 25.9 °F /  -3.4 °C 29.78in /  1008.4hPa WSW 14.0mph /  22.5km/h 28.0mph /  45.1km/h 49% 0.00in /  0mm
18:19 44.2 °F /  6.8 °C 24.2 °F /  -4.3 °C 29.79in /  1008.7hPa WSW 13.0mph /  20.9km/h 32.0mph /  51.5km/h 45% 0.00in /  0mm
18:24 44.6 °F /  7 °C 22.9 °F /  -5.1 °C 29.79in /  1008.7hPa WSW 13.0mph /  20.9km/h 32.0mph /  51.5km/h 42% 0.00in /  0mm
18:29 44.9 °F /  7.2 °C 23.7 °F /  -4.6 °C 29.80in /  1009hPa WSW 13.0mph /  20.9km/h 29.0mph /  46.7km/h 43% 0.00in /  0mm
18:34 44.6 °F /  7 °C 24.0 °F /  -4.4 °C 29.80in /  1009hPa WSW 13.0mph /  20.9km/h 26.0mph /  41.8km/h 44% 0.00in /  0mm
18:39 44.6 °F /  7 °C 23.5 °F /  -4.7 °C 29.80in /  1009hPa West 15.0mph /  24.1km/h 22.0mph /  35.4km/h 43% 0.00in /  0mm
18:44 44.5 °F /  6.9 °C 23.9 °F /  -4.5 °C 29.80in /  1009hPa West 7.0mph /  11.3km/h 19.0mph /  30.6km/h 44% 0.00in /  0mm
18:49 44.1 °F /  6.7 °C 24.6 °F /  -4.1 °C 29.81in /  1009.4hPa WSW 10.0mph /  16.1km/h 19.0mph /  30.6km/h 46% 0.00in /  0mm
18:54 43.9 °F /  6.6 °C 23.9 °F /  -4.5 °C 29.81in /  1009.4hPa SW 10.0mph /  16.1km/h 22.0mph /  35.4km/h 45% 0.00in /  0mm
18:59 43.9 °F /  6.6 °C 24.4 °F /  -4.2 °C 29.81in /  1009.4hPa SW 10.0mph /  16.1km/h 21.0mph /  33.8km/h 46% 0.00in /  0mm
19:04 43.9 °F /  6.6 °C 24.4 °F /  -4.2 °C 29.81in /  1009.4hPa WSW 11.0mph /  17.7km/h 26.0mph /  41.8km/h 46% 0.00in /  0mm
19:09 43.8 °F /  6.6 °C 24.3 °F /  -4.3 °C 29.81in /  1009.4hPa West 8.0mph /  12.9km/h 20.0mph /  32.2km/h 46% 0.00in /  0mm
19:14 43.8 °F /  6.6 °C 24.3 °F /  -4.3 °C 29.81in /  1009.4hPa West 9.0mph /  14.5km/h 20.0mph /  32.2km/h 46% 0.00in /  0mm
19:19 44.0 °F /  6.7 °C 24.0 °F /  -4.4 °C 29.81in /  1009.4hPa West 10.0mph /  16.1km/h 18.0mph /  29km/h 45% 0.00in /  0mm
19:24 44.0 °F /  6.7 °C 24.0 °F /  -4.4 °C 29.81in /  1009.4hPa West 9.0mph /  14.5km/h 18.0mph /  29km/h 45% 0.00in /  0mm
19:29 44.2 °F /  6.8 °C 23.6 °F /  -4.7 °C 29.82in /  1009.7hPa West 9.0mph /  14.5km/h 18.0mph /  29km/h 44% 0.00in /  0mm
19:34 44.0 °F /  6.7 °C 25.5 °F /  -3.6 °C 29.82in /  1009.7hPa WSW 9.0mph /  14.5km/h 18.0mph /  29km/h 48% 0.00in /  0mm
19:39 42.9 °F /  6.1 °C 26.5 °F /  -3.1 °C 29.81in /  1009.4hPa WSW 8.0mph /  12.9km/h 18.0mph /  29km/h 52% 0.00in /  0mm
19:44 42.6 °F /  5.9 °C 26.2 °F /  -3.2 °C 29.82in /  1009.7hPa WSW 9.0mph /  14.5km/h 18.0mph /  29km/h 52% 0.00in /  0mm
19:49 42.4 °F /  5.8 °C 26.9 °F /  -2.8 °C 29.83in /  1010hPa NW 17.0mph /  27.4km/h 22.0mph /  35.4km/h 54% 0.00in /  0mm
19:54 42.0 °F /  5.6 °C 27.4 °F /  -2.6 °C 29.82in /  1009.7hPa West 19.0mph /  30.6km/h 19.0mph /  30.6km/h 56% 0.00in /  0mm
19:59 41.6 °F /  5.3 °C 27.5 °F /  -2.5 °C 29.83in /  1010hPa SW 11.0mph /  17.7km/h 19.0mph /  30.6km/h 57% 0.00in /  0mm
20:04 41.3 °F /  5.2 °C 28.0 °F /  -2.2 °C 29.83in /  1010hPa WSW 7.0mph /  11.3km/h 20.0mph /  32.2km/h 59% 0.00in /  0mm
20:09 40.9 °F /  4.9 °C 28.1 °F /  -2.2 °C 29.83in /  1010hPa WSW 11.0mph /  17.7km/h 21.0mph /  33.8km/h 60% 0.00in /  0mm
20:14 40.6 °F /  4.8 °C 28.2 °F /  -2.1 °C 29.84in /  1010.4hPa SW 11.0mph /  17.7km/h 17.0mph /  27.4km/h 61% 0.00in /  0mm
20:19 40.4 °F /  4.7 °C 28.8 °F /  -1.8 °C 29.84in /  1010.4hPa West 5.0mph /  8km/h 19.0mph /  30.6km/h 63% 0.00in /  0mm
20:24 40.3 °F /  4.6 °C 28.7 °F /  -1.8 °C 29.84in /  1010.4hPa WSW 12.0mph /  19.3km/h 24.0mph /  38.6km/h 63% 0.00in /  0mm
20:29 40.2 °F /  4.6 °C 29.0 °F /  -1.7 °C 29.84in /  1010.4hPa WSW 11.0mph /  17.7km/h 24.0mph /  38.6km/h 64% 0.00in /  0mm
20:34 40.1 °F /  4.5 °C 28.9 °F /  -1.7 °C 29.84in /  1010.4hPa WSW 11.0mph /  17.7km/h 23.0mph /  37km/h 64% 0.00in /  0mm
20:39 40.1 °F /  4.5 °C 28.9 °F /  -1.7 °C 29.84in /  1010.4hPa WSW 10.0mph /  16.1km/h 21.0mph /  33.8km/h 64% 0.00in /  0mm
20:44 40.0 °F /  4.4 °C 28.0 °F /  -2.2 °C 29.84in /  1010.4hPa WSW 9.0mph /  14.5km/h 18.0mph /  29km/h 62% 0.00in /  0mm
20:49 40.3 °F /  4.6 °C 27.5 °F /  -2.5 °C 29.84in /  1010.4hPa West 9.0mph /  14.5km/h 15.0mph /  24.1km/h 60% 0.00in /  0mm
20:54 40.6 °F /  4.8 °C 27.4 °F /  -2.6 °C 29.84in /  1010.4hPa West 9.0mph /  14.5km/h 17.0mph /  27.4km/h 59% 0.00in /  0mm
20:59 40.7 °F /  4.8 °C 27.1 °F /  -2.7 °C 29.84in /  1010.4hPa WSW 8.0mph /  12.9km/h 16.0mph /  25.7km/h 58% 0.00in /  0mm
21:04 40.7 °F /  4.8 °C 27.1 °F /  -2.7 °C 29.85in /  1010.7hPa West 4.0mph /  6.4km/h 15.0mph /  24.1km/h 58% 0.00in /  0mm
21:09 40.6 °F /  4.8 °C 26.5 °F /  -3.1 °C 29.85in /  1010.7hPa West 4.0mph /  6.4km/h 14.0mph /  22.5km/h 57% 0.00in /  0mm
21:14 41.0 °F /  5 °C 26.1 °F /  -3.3 °C 29.85in /  1010.7hPa West 9.0mph /  14.5km/h 20.0mph /  32.2km/h 55% 0.00in /  0mm
21:19 41.2 °F /  5.1 °C 25.8 °F /  -3.4 °C 29.86in /  1011.1hPa SW 8.0mph /  12.9km/h 15.0mph /  24.1km/h 54% 0.00in /  0mm
21:24 41.0 °F /  5 °C 26.9 °F /  -2.8 °C 29.86in /  1011.1hPa WSW 6.0mph /  9.7km/h 16.0mph /  25.7km/h 57% 0.00in /  0mm
21:29 40.6 °F /  4.8 °C 27.8 °F /  -2.3 °C 29.87in /  1011.4hPa WSW 9.0mph /  14.5km/h 17.0mph /  27.4km/h 60% 0.00in /  0mm
21:34 40.4 °F /  4.7 °C 27.2 °F /  -2.7 °C 29.87in /  1011.4hPa WSW 9.0mph /  14.5km/h 17.0mph /  27.4km/h 59% 0.00in /  0mm
21:39 40.4 °F /  4.7 °C 27.2 °F /  -2.7 °C 29.87in /  1011.4hPa WSW 8.0mph /  12.9km/h 16.0mph /  25.7km/h 59% 0.00in /  0mm
21:44 40.1 °F /  4.5 °C 27.3 °F /  -2.6 °C 29.88in /  1011.7hPa WSW 6.0mph /  9.7km/h 16.0mph /  25.7km/h 60% 0.00in /  0mm
21:49 39.6 °F /  4.2 °C 28.4 °F /  -2 °C 29.87in /  1011.4hPa WSW 5.0mph /  8km/h 10.0mph /  16.1km/h 64% 0.00in /  0mm
21:54 39.2 °F /  4 °C 28.4 °F /  -2 °C 29.88in /  1011.7hPa WSW 6.0mph /  9.7km/h 10.0mph /  16.1km/h 65% 0.00in /  0mm
21:59 39.3 °F /  4.1 °C 27.4 °F /  -2.6 °C 29.88in /  1011.7hPa West 2.0mph /  3.2km/h 11.0mph /  17.7km/h 62% 0.00in /  0mm
22:04 39.5 °F /  4.2 °C 27.2 °F /  -2.7 °C 29.89in /  1012.1hPa West 5.0mph /  8km/h 14.0mph /  22.5km/h 61% 0.00in /  0mm
22:09 39.7 °F /  4.3 °C 26.5 °F /  -3.1 °C 29.89in /  1012.1hPa SW 6.0mph /  9.7km/h 11.0mph /  17.7km/h 59% 0.00in /  0mm
22:14 39.4 °F /  4.1 °C 27.1 °F /  -2.7 °C 29.89in /  1012.1hPa West 6.0mph /  9.7km/h 10.0mph /  16.1km/h 61% 0.00in /  0mm
22:19 39.1 °F /  3.9 °C 27.9 °F /  -2.3 °C 29.89in /  1012.1hPa WSW 3.0mph /  4.8km/h 9.0mph /  14.5km/h 64% 0.00in /  0mm
22:24 38.8 °F /  3.8 °C 28.0 °F /  -2.2 °C 29.89in /  1012.1hPa WSW 5.0mph /  8km/h 7.0mph /  11.3km/h 65% 0.00in /  0mm
22:29 38.7 °F /  3.7 °C 27.9 °F /  -2.3 °C 29.89in /  1012.1hPa WSW 5.0mph /  8km/h 8.0mph /  12.9km/h 65% 0.00in /  0mm
22:34 38.4 °F /  3.6 °C 28.4 °F /  -2 °C 29.89in /  1012.1hPa WSW 5.0mph /  8km/h 8.0mph /  12.9km/h 67% 0.00in /  0mm
22:39 38.2 °F /  3.4 °C 28.6 °F /  -1.9 °C 29.89in /  1012.1hPa WSW 4.0mph /  6.4km/h 8.0mph /  12.9km/h 68% 0.00in /  0mm
22:44 38.3 °F /  3.5 °C 28.7 °F /  -1.8 °C 29.89in /  1012.1hPa WSW 5.0mph /  8km/h 10.0mph /  16.1km/h 68% 0.00in /  0mm
22:49 38.2 °F /  3.4 °C 28.2 °F /  -2.1 °C 29.89in /  1012.1hPa WSW 4.0mph /  6.4km/h 7.0mph /  11.3km/h 67% 0.00in /  0mm
22:54 38.2 °F /  3.4 °C 28.2 °F /  -2.1 °C 29.89in /  1012.1hPa West 4.0mph /  6.4km/h 11.0mph /  17.7km/h 67% 0.00in /  0mm
22:59 38.1 °F /  3.4 °C 28.1 °F /  -2.2 °C 29.89in /  1012.1hPa WSW 2.0mph /  3.2km/h 9.0mph /  14.5km/h 67% 0.00in /  0mm
23:04 38.2 °F /  3.4 °C 27.8 °F /  -2.3 °C 29.90in /  1012.4hPa West 4.0mph /  6.4km/h 11.0mph /  17.7km/h 66% 0.00in /  0mm
23:09 38.0 °F /  3.3 °C 28.0 °F /  -2.2 °C 29.90in /  1012.4hPa WSW 3.0mph /  4.8km/h 8.0mph /  12.9km/h 67% 0.00in /  0mm
23:14 37.9 °F /  3.3 °C 28.3 °F /  -2.1 °C 29.89in /  1012.1hPa WSW 6.0mph /  9.7km/h 10.0mph /  16.1km/h 68% 0.00in /  0mm
23:19 38.0 °F /  3.3 °C 28.4 °F /  -2 °C 29.90in /  1012.4hPa WSW 6.0mph /  9.7km/h 9.0mph /  14.5km/h 68% 0.00in /  0mm
23:24 38.0 °F /  3.3 °C 28.0 °F /  -2.2 °C 29.90in /  1012.4hPa WSW 8.0mph /  12.9km/h 11.0mph /  17.7km/h 67% 0.00in /  0mm
23:29 38.2 °F /  3.4 °C 28.2 °F /  -2.1 °C 29.90in /  1012.4hPa WSW 8.0mph /  12.9km/h 11.0mph /  17.7km/h 67% 0.00in /  0mm
23:34 38.5 °F /  3.6 °C 27.7 °F /  -2.4 °C 29.90in /  1012.4hPa WSW 6.0mph /  9.7km/h 12.0mph /  19.3km/h 65% 0.00in /  0mm
23:39 38.6 °F /  3.7 °C 27.5 °F /  -2.5 °C 29.90in /  1012.4hPa West 6.0mph /  9.7km/h 12.0mph /  19.3km/h 64% 0.00in /  0mm
23:44 38.7 °F /  3.7 °C 26.8 °F /  -2.9 °C 29.89in /  1012.1hPa West 6.0mph /  9.7km/h 11.0mph /  17.7km/h 62% 0.00in /  0mm
23:49 38.5 °F /  3.6 °C 26.6 °F /  -3 °C 29.89in /  1012.1hPa West 6.0mph /  9.7km/h 11.0mph /  17.7km/h 62% 0.00in /  0mm
23:54 38.5 °F /  3.6 °C 26.2 °F /  -3.2 °C 29.90in /  1012.4hPa WNW 3.0mph /  4.8km/h 10.0mph /  16.1km/h 61% 0.00in /  0mm
23:59 38.6 °F /  3.7 °C 25.9 °F /  -3.4 °C 29.90in /  1012.4hPa WNW 7.0mph /  11.3km/h 10.0mph /  16.1km/h 60% 0.00in /  0mm
Buffalo, New York, USA
Compliments of Weather Underground - 2.5 mb